This is the latest recevied weather packets stored in our database for station/object K5WNG. If no packets are shown the sender has not sent any weather packets the latest 10 day(s).
| Time | Temp. | Humidity | Pressure | Rain* | Wind** | Luminosity | Snow |
|---|---|---|---|---|---|---|---|
| 1778170826 | 15° C | 82% | 1018.6 hPa | 0 mm | - | 103 W/m² | - |
| 1778170526 | 14.44° C | 83% | 1019.1 hPa | 0 mm | - | 89 W/m² | - |
| 1778170226 | 14.44° C | 83% | 1018.8 hPa | 0 mm | - | 93 W/m² | - |
| 1778169927 | 14.44° C | 83% | 1019 hPa | 0 mm | - | 76 W/m² | - |
| 1778169621 | 14.44° C | 83% | 1018.6 hPa | 0 mm | - | 81 W/m² | - |
| 1778169320 | 15° C | 82% | 1018.5 hPa | 0 mm | - | 99 W/m² | - |
| 1778169023 | 15° C | 82% | 1018.2 hPa | 0 mm | - | 133 W/m² | - |
| 1778168723 | 15° C | 83% | 1018.2 hPa | 0 mm | - | 143 W/m² | - |
| 1778168424 | 15° C | 83% | 1018.6 hPa | 0 mm | - | 127 W/m² | - |
| 1778168126 | 15° C | 83% | 1018.6 hPa | 0 mm | - | 122 W/m² | - |
| 1778167827 | 15° C | 84% | 1018.4 hPa | 0 mm | - | 107 W/m² | - |
| 1778167524 | 15° C | 85% | 1018.2 hPa | 0 mm | - | 115 W/m² | - |
| 1778167224 | 15° C | 85% | 1018.1 hPa | 0 mm | - | 110 W/m² | - |
| 1778166924 | 14.44° C | 86% | 1018.3 hPa | 0 mm | - | 116 W/m² | - |
| 1778166633 | 14.44° C | 86% | 1018.4 hPa | 0 mm | - | 111 W/m² | - |
| 1778166324 | 14.44° C | 87% | 1018.4 hPa | 0 mm | - | 110 W/m² | - |
| 1778166024 | 14.44° C | 87% | 1018.5 hPa | 0 mm | - | 83 W/m² | - |
| 1778165721 | 14.44° C | 87% | 1018.7 hPa | 0 mm | - | 60 W/m² | - |
| 1778165424 | 14.44° C | 87% | 1018.7 hPa | 0 mm | - | 55 W/m² | - |
| 1778165127 | 14.44° C | 88% | 1018.6 hPa | 0 mm | - | 57 W/m² | - |
| 1778164824 | 14.44° C | 88% | 1018.5 hPa | 0 mm | - | 52 W/m² | - |
| 1778164524 | 14.44° C | 88% | 1018.4 hPa | 0 mm | - | 68 W/m² | - |
| 1778164224 | 14.44° C | 88% | 1018.2 hPa | 0 mm | - | 76 W/m² | - |
| 1778163924 | 14.44° C | 89% | 1017.9 hPa | 0 mm | - | 79 W/m² | - |
| 1778163619 | 14.44° C | 89% | 1017.9 hPa | 0 mm | - | 62 W/m² | - |
* Rain latest hour (hover to see other rain measurements)
** Current wind speed in m/s (hover to see current wind gust speed)